Woodgate — D5BX7 — position and weather

sailwx.info

Track history (hours):
 
Tides and Currents Weather Stations Pressure Air Temp Water Temp Dewpoint Dewpoint Depression Visibility Wind Speed Wind Dir Waves Ship Positions

Woodgate

Last reported at 2017-Jul-22 04:30 UTC. Time now 2017-Jul-22 04:41 UTC.
Position N 49°55' W 002°09'.

Length 169 m; draft 9.3 m.

Type: Cargo ship. MMSI: 636015627.

Date/timePositionNaut miles runAvg speedWind from/ knotsBaromVisibWave heightAir tempDewpointWater temp
2017-Jul-22 04:30N 49°55' W 002°09'2214.2
2017-Jul-22 02:56N 49°49' W 002°42'613.4
2017-Jul-22 02:30N 49°48' W 002°51'913.0
2017-Jul-22 01:49N 49°43' W 003°03'412.7
2017-Jul-22 01:30N 49°41' W 003°08'612.3
2017-Jul-22 01:00N 49°38' W 003°17'612.2
2017-Jul-22 00:30N 49°35' W 003°25'7511.6
2017-Jul-21 18:04N 48°59' W 005°05'212.4
2017-Jul-21 17:53N 48°58' W 005°08'  
Track history (hours):
 
Tides and Currents Weather Stations Pressure Air Temp Water Temp Dewpoint Dewpoint Depression Visibility Wind Speed Wind Dir Waves Ship Positions

Woodgate

Last reported at 2017-Jul-22 04:30 UTC. Time now 2017-Jul-22 04:41 UTC.
Position N 49°55' W 002°09'.

Length 169 m; draft 9.3 m.

Type: Cargo ship. MMSI: 636015627.

Date/timePositionNaut miles runAvg speedWind from/ knotsBaromVisibWave heightAir tempDewpointWater temp
2017-Jul-22 04:30N 49°55' W 002°09'2214.2
2017-Jul-22 02:56N 49°49' W 002°42'613.4
2017-Jul-22 02:30N 49°48' W 002°51'913.0
2017-Jul-22 01:49N 49°43' W 003°03'412.7
2017-Jul-22 01:30N 49°41' W 003°08'612.3
2017-Jul-22 01:00N 49°38' W 003°17'612.2
2017-Jul-22 00:30N 49°35' W 003°25'7511.6
2017-Jul-21 18:04N 48°59' W 005°05'212.4
2017-Jul-21 17:53N 48°58' W 005°08'  

Dump ship's entire track history